Time;durP1;ratioP1;P1;durP2;ratioP2;P2;SDS_P1;SDS_P2;PMS_P1;PMS_P2;Temp;Humidity;BMP_temperature;BMP_pressure;BME280_temperature;BME280_humidity;BME280_pressure;Samples;Min_cycle;Max_cycle;Signal;HPM_P1;HPM_P2
2022/08/21 00:00:59;;;;;;;2.45;2.30;;;;;;;;;;4986676;28;20517;-61
2022/08/21 00:03:24;;;;;;;2.25;2.15;;;;;;;;;;4987130;28;20085;-62
2022/08/21 00:05:50;;;;;;;1.90;1.80;;;;;;;;;;4968175;28;20948;-62
2022/08/21 00:08:16;;;;;;;1.70;1.70;;;;;;;;;;4969058;28;20034;-61
2022/08/21 00:10:42;;;;;;;2.30;2.20;;;;;;;;;;4986237;28;20018;-61
2022/08/21 00:13:08;;;;;;;1.90;1.80;;;;;;;;;;4986512;28;20030;-62
2022/08/21 00:15:35;;;;;;;2.35;2.25;;;;;;;;;;4986166;28;20015;-62
2022/08/21 00:18:00;;;;;;;2.33;2.22;;;;;;;;;;4970256;28;20030;-61
2022/08/21 00:20:26;;;;;;;2.22;2.13;;;;;;;;;;4985496;28;20022;-61
2022/08/21 00:22:51;;;;;;;1.80;1.70;;;;;;;;;;4986575;28;20473;-62
2022/08/21 00:25:17;;;;;;;1.70;1.70;;;;;;;;;;4986891;28;20140;-61
2022/08/21 00:27:43;;;;;;;1.80;1.70;;;;;;;;;;4987350;28;20105;-62
2022/08/21 00:30:10;;;;;;;2.03;1.92;;;;;;;;;;4985223;28;20610;-61
2022/08/21 00:32:37;;;;;;;2.00;1.90;;;;;;;;;;4985273;28;20149;-61
2022/08/21 00:35:03;;;;;;;2.03;1.92;;;;;;;;;;4985931;28;20026;-65
2022/08/21 00:37:28;;;;;;;1.65;1.65;;;;;;;;;;4985854;28;20025;-61
2022/08/21 00:39:54;;;;;;;2.20;2.10;;;;;;;;;;4986332;28;20081;-62
2022/08/21 00:42:20;;;;;;;2.65;2.45;;;;;;;;;;4986337;28;20029;-61
2022/08/21 00:44:46;;;;;;;2.33;2.22;;;;;;;;;;4986612;28;20473;-61
2022/08/21 00:47:12;;;;;;;2.40;2.30;;;;;;;;;;4985213;28;20026;-62
2022/08/21 00:49:38;;;;;;;2.45;2.35;;;;;;;;;;4985264;28;20089;-62
2022/08/21 00:52:05;;;;;;;2.50;2.40;;;;;;;;;;4985187;28;20035;-61
2022/08/21 00:54:31;;;;;;;2.70;2.60;;;;;;;;;;4986233;28;20033;-62
2022/08/21 00:56:58;;;;;;;3.00;2.80;;;;;;;;;;4984781;28;20492;-61
2022/08/21 00:59:24;;;;;;;3.47;3.28;;;;;;;;;;4986512;28;20018;-61
2022/08/21 01:01:50;;;;;;;2.70;2.60;;;;;;;;;;4986646;28;20025;-61
2022/08/21 01:04:16;;;;;;;3.47;3.28;;;;;;;;;;4985893;28;20072;-61
2022/08/21 01:06:41;;;;;;;2.70;2.60;;;;;;;;;;4985552;28;20026;-61
2022/08/21 01:09:06;;;;;;;4.68;3.22;;;;;;;;;;4986983;28;20032;-62
2022/08/21 01:11:32;;;;;;;3.45;3.15;;;;;;;;;;4970149;28;20693;-62
2022/08/21 01:13:57;;;;;;;2.92;2.80;;;;;;;;;;4985846;28;20506;-62
2022/08/21 01:16:23;;;;;;;3.15;2.88;;;;;;;;;;4984938;28;20026;-61
2022/08/21 01:18:49;;;;;;;3.70;3.50;;;;;;;;;;4985694;28;20426;-61
2022/08/21 01:21:19;;;;;;;3.00;2.90;;;;;;;;;;4986083;28;20026;-61
2022/08/21 01:23:45;;;;;;;5.07;3.70;;;;;;;;;;4970031;28;20053;-61
2022/08/21 01:26:12;;;;;;;3.28;3.08;;;;;;;;;;4984987;28;20022;-63
2022/08/21 01:28:49;;;;;;;3.28;3.08;;;;;;;;;;4985486;28;20041;-62
2022/08/21 01:31:15;;;;;;;3.40;3.13;;;;;;;;;;4984805;28;20494;-62
2022/08/21 01:33:40;;;;;;;3.95;3.47;;;;;;;;;;4984837;28;20062;-62
2022/08/21 01:36:06;;;;;;;3.17;2.97;;;;;;;;;;4985123;28;20404;-61
2022/08/21 01:38:32;;;;;;;3.13;2.92;;;;;;;;;;4985378;28;20054;-62
2022/08/21 01:40:57;;;;;;;2.97;2.78;;;;;;;;;;4985247;28;20042;-62
2022/08/21 01:43:22;;;;;;;3.90;3.22;;;;;;;;;;4984626;28;20389;-61
2022/08/21 01:45:48;;;;;;;3.42;3.22;;;;;;;;;;4968315;28;20114;-62
2022/08/21 01:48:13;;;;;;;4.28;3.97;;;;;;;;;;4985103;28;20062;-62
2022/08/21 01:50:38;;;;;;;3.50;3.30;;;;;;;;;;4983148;28;20062;-60
2022/08/21 01:53:04;;;;;;;3.60;3.40;;;;;;;;;;4985218;28;20038;-62
2022/08/21 01:55:29;;;;;;;3.20;3.00;;;;;;;;;;4985246;28;20033;-66
2022/08/21 01:57:54;;;;;;;3.53;3.33;;;;;;;;;;4984956;28;20037;-61
2022/08/21 02:00:22;;;;;;;3.60;3.40;;;;;;;;;;4983947;28;20351;-62
2022/08/21 02:02:48;;;;;;;3.85;3.55;;;;;;;;;;4985434;28;20057;-63
2022/08/21 02:05:14;;;;;;;3.45;3.25;;;;;;;;;;4983895;28;20444;-62
2022/08/21 02:07:41;;;;;;;4.10;3.90;;;;;;;;;;4984775;28;20562;-61
2022/08/21 02:10:07;;;;;;;4.00;3.70;;;;;;;;;;4984320;28;20160;-61
2022/08/21 02:12:32;;;;;;;3.88;3.58;;;;;;;;;;4983084;28;20092;-63
2022/08/21 02:14:58;;;;;;;4.28;3.55;;;;;;;;;;4984509;28;20026;-65
2022/08/21 02:17:23;;;;;;;3.88;3.63;;;;;;;;;;4983323;28;20040;-64
2022/08/21 02:19:48;;;;;;;4.25;3.95;;;;;;;;;;4983814;28;20026;-63
2022/08/21 02:22:14;;;;;;;4.60;4.15;;;;;;;;;;4984897;28;20366;-61
2022/08/21 02:24:39;;;;;;;4.05;3.80;;;;;;;;;;4983876;28;20485;-63
2022/08/21 02:27:04;;;;;;;3.88;3.67;;;;;;;;;;4984575;28;20553;-63
2022/08/21 02:29:29;;;;;;;4.90;4.60;;;;;;;;;;4985733;28;20038;-66
2022/08/21 02:31:54;;;;;;;4.30;4.00;;;;;;;;;;4988322;28;20510;-65
2022/08/21 02:34:20;;;;;;;3.80;3.60;;;;;;;;;;4988311;28;20572;-64
2022/08/21 02:36:45;;;;;;;4.88;4.55;;;;;;;;;;4988166;28;20442;-65
2022/08/21 02:39:11;;;;;;;4.40;4.20;;;;;;;;;;4987713;28;20157;-63
2022/08/21 02:41:36;;;;;;;4.07;3.80;;;;;;;;;;4989158;28;20448;-64
2022/08/21 02:44:01;;;;;;;4.00;3.80;;;;;;;;;;4988062;28;20041;-63
2022/08/21 02:46:27;;;;;;;4.28;3.97;;;;;;;;;;4988503;28;20037;-64
2022/08/21 02:48:52;;;;;;;3.90;3.60;;;;;;;;;;4974263;28;20030;-65
2022/08/21 02:51:18;;;;;;;3.75;3.55;;;;;;;;;;4989280;28;20539;-63
2022/08/21 02:53:44;;;;;;;3.47;3.28;;;;;;;;;;4988262;28;20030;-63
2022/08/21 02:56:10;;;;;;;3.88;3.58;;;;;;;;;;4989311;28;20630;-64
2022/08/21 02:58:38;;;;;;;4.28;3.97;;;;;;;;;;4989363;28;20031;-63
2022/08/21 03:01:08;;;;;;;4.25;3.95;;;;;;;;;;4989130;28;20904;-64
2022/08/21 03:03:35;;;;;;;4.32;3.90;;;;;;;;;;4988483;28;20029;-63
2022/08/21 03:06:00;;;;;;;4.50;4.20;;;;;;;;;;4989249;28;20031;-65
2022/08/21 03:08:25;;;;;;;5.30;4.35;;;;;;;;;;4976180;28;20040;-64
2022/08/21 03:10:51;;;;;;;4.68;4.38;;;;;;;;;;4989645;28;20038;-64
2022/08/21 03:13:17;;;;;;;5.05;4.75;;;;;;;;;;4988525;28;20760;-66
2022/08/21 03:15:43;;;;;;;4.55;4.22;;;;;;;;;;4988802;28;20034;-64
2022/08/21 03:18:09;;;;;;;4.82;4.53;;;;;;;;;;4988867;28;20034;-66
2022/08/21 03:20:35;;;;;;;4.30;4.00;;;;;;;;;;4961444;28;20030;-63
2022/08/21 03:23:01;;;;;;;4.20;3.80;;;;;;;;;;4986854;28;20030;-68
2022/08/21 03:25:27;;;;;;;4.10;3.85;;;;;;;;;;4988397;28;20034;-66
2022/08/21 03:27:53;;;;;;;4.72;4.32;;;;;;;;;;4987717;28;20022;-62
2022/08/21 03:30:19;;;;;;;4.63;4.32;;;;;;;;;;4987754;28;20037;-61
2022/08/21 03:32:45;;;;;;;5.13;4.75;;;;;;;;;;4965853;28;20064;-62
2022/08/21 03:35:11;;;;;;;5.15;4.50;;;;;;;;;;4967481;28;20033;-62
2022/08/21 03:37:36;;;;;;;4.47;4.18;;;;;;;;;;4968260;28;20023;-63
2022/08/21 03:40:03;;;;;;;4.68;4.38;;;;;;;;;;4969046;28;20322;-62
2022/08/21 03:42:28;;;;;;;4.50;4.20;;;;;;;;;;4968643;28;20572;-62
2022/08/21 03:44:54;;;;;;;4.85;3.97;;;;;;;;;;4967114;28;20026;-63
2022/08/21 03:47:19;;;;;;;4.22;4.00;;;;;;;;;;4966757;28;20567;-63
2022/08/21 03:49:44;;;;;;;4.25;3.95;;;;;;;;;;4966419;28;20034;-62
2022/08/21 03:52:11;;;;;;;4.35;4.05;;;;;;;;;;4964484;28;20493;-63
2022/08/21 03:54:36;;;;;;;4.40;4.10;;;;;;;;;;4962793;28;20615;-64
2022/08/21 03:57:01;;;;;;;4.70;4.40;;;;;;;;;;4966424;28;20023;-62
2022/08/21 03:59:27;;;;;;;3.95;3.75;;;;;;;;;;4967725;28;20085;-63
2022/08/21 04:01:56;;;;;;;5.13;4.50;;;;;;;;;;4968662;28;20389;-62
2022/08/21 04:04:22;;;;;;;4.57;4.28;;;;;;;;;;4967522;28;20034;-63
2022/08/21 04:06:47;;;;;;;4.43;4.13;;;;;;;;;;4969282;28;20021;-63
2022/08/21 04:09:12;;;;;;;4.43;4.13;;;;;;;;;;4967625;28;20027;-62
2022/08/21 04:11:39;;;;;;;3.97;3.78;;;;;;;;;;4969122;28;20122;-62
2022/08/21 04:14:04;;;;;;;3.92;3.63;;;;;;;;;;4967967;28;20051;-63
2022/08/21 04:16:30;;;;;;;4.13;3.83;;;;;;;;;;4968663;28;20520;-62
2022/08/21 04:18:55;;;;;;;3.90;3.70;;;;;;;;;;4967693;28;20504;-63
2022/08/21 04:21:21;;;;;;;2.90;2.80;;;;;;;;;;4968145;28;20022;-62
2022/08/21 04:23:46;;;;;;;3.08;2.88;;;;;;;;;;4967366;28;20594;-61
2022/08/21 04:26:11;;;;;;;2.75;2.55;;;;;;;;;;4967700;28;20023;-61
2022/08/21 04:28:36;;;;;;;3.17;2.97;;;;;;;;;;4967835;28;20553;-61
2022/08/21 04:31:02;;;;;;;2.75;2.65;;;;;;;;;;4949527;28;20027;-61
2022/08/21 04:33:27;;;;;;;2.60;2.38;;;;;;;;;;4981712;28;20428;-61
2022/08/21 04:35:52;;;;;;;2.50;2.40;;;;;;;;;;4985228;28;20042;-61
2022/08/21 04:38:18;;;;;;;2.65;2.47;;;;;;;;;;4981934;28;20022;-61
2022/08/21 04:40:44;;;;;;;2.40;2.30;;;;;;;;;;4981685;28;20510;-61
2022/08/21 04:43:10;;;;;;;2.00;1.90;;;;;;;;;;4983897;28;20041;-61
2022/08/21 04:45:41;;;;;;;2.20;2.10;;;;;;;;;;4986939;28;20030;-61
2022/08/21 04:48:07;;;;;;;1.95;1.85;;;;;;;;;;4985986;28;20045;-64
2022/08/21 04:50:47;;;;;;;2.05;1.95;;;;;;;;;;4985532;28;20038;-61
2022/08/21 04:53:17;;;;;;;2.00;1.90;;;;;;;;;;4985026;28;20045;-60
2022/08/21 04:55:44;;;;;;;2.42;2.05;;;;;;;;;;4986431;28;20475;-62
2022/08/21 04:58:11;;;;;;;2.00;1.90;;;;;;;;;;4985529;28;20159;-63
2022/08/21 05:00:36;;;;;;;2.65;2.47;;;;;;;;;;4981799;28;20029;-63
2022/08/21 05:03:04;;;;;;;1.75;1.60;;;;;;;;;;4964328;28;20468;-62
2022/08/21 05:05:29;;;;;;;1.83;1.73;;;;;;;;;;4984685;28;20029;-61
2022/08/21 05:07:55;;;;;;;1.98;1.88;;;;;;;;;;4985621;28;20027;-62
2022/08/21 05:10:21;;;;;;;2.38;2.28;;;;;;;;;;4985254;28;20074;-62
2022/08/21 05:12:46;;;;;;;1.83;1.80;;;;;;;;;;4985714;28;20573;-61
2022/08/21 05:15:12;;;;;;;2.30;2.10;;;;;;;;;;4986358;28;20029;-65
2022/08/21 05:17:38;;;;;;;1.92;1.83;;;;;;;;;;4985935;28;20033;-62
2022/08/21 05:20:03;;;;;;;1.88;1.77;;;;;;;;;;4985628;28;20027;-62
2022/08/21 05:22:28;;;;;;;2.58;2.38;;;;;;;;;;4985471;28;20501;-62
2022/08/21 05:24:54;;;;;;;1.90;1.80;;;;;;;;;;4985040;28;20018;-62
2022/08/21 05:27:19;;;;;;;1.90;1.80;;;;;;;;;;4986330;28;20033;-63
2022/08/21 05:29:44;;;;;;;1.92;1.83;;;;;;;;;;4985403;28;20847;-62
2022/08/21 05:32:10;;;;;;;1.92;1.83;;;;;;;;;;4985516;28;20062;-64
2022/08/21 05:34:36;;;;;;;2.20;2.10;;;;;;;;;;4983364;28;20031;-62
2022/08/21 05:37:01;;;;;;;1.95;1.85;;;;;;;;;;4985804;28;20069;-61
2022/08/21 05:39:26;;;;;;;1.80;1.70;;;;;;;;;;4985669;28;20034;-64
2022/08/21 05:41:51;;;;;;;2.10;2.00;;;;;;;;;;4984707;28;20026;-64
2022/08/21 05:44:17;;;;;;;2.00;1.90;;;;;;;;;;4985595;28;20412;-62
2022/08/21 05:46:42;;;;;;;2.05;1.95;;;;;;;;;;4985879;28;20384;-63
2022/08/21 05:49:07;;;;;;;1.58;1.48;;;;;;;;;;4984737;28;20037;-63
2022/08/21 05:51:33;;;;;;;2.30;2.20;;;;;;;;;;4985338;28;20122;-62
2022/08/21 05:53:58;;;;;;;1.90;1.80;;;;;;;;;;4985669;28;20031;-63
2022/08/21 05:56:23;;;;;;;1.90;1.80;;;;;;;;;;4985439;28;20507;-63
2022/08/21 05:58:48;;;;;;;2.25;2.15;;;;;;;;;;4985849;28;20385;-63
2022/08/21 06:01:15;;;;;;;1.83;1.73;;;;;;;;;;4984495;28;20398;-63
2022/08/21 06:03:40;;;;;;;2.10;2.00;;;;;;;;;;4985473;28;20037;-62
2022/08/21 06:06:06;;;;;;;2.15;2.00;;;;;;;;;;4984388;28;20408;-62
2022/08/21 06:08:31;;;;;;;2.10;2.00;;;;;;;;;;4985244;28;20034;-61
2022/08/21 06:10:58;;;;;;;1.90;1.80;;;;;;;;;;4984627;28;20049;-62
2022/08/21 06:13:24;;;;;;;2.30;2.10;;;;;;;;;;4984361;28;20026;-62
2022/08/21 06:15:50;;;;;;;2.20;2.10;;;;;;;;;;4983959;28;20028;-62
2022/08/21 06:18:15;;;;;;;2.28;2.17;;;;;;;;;;4984729;28;20480;-61
2022/08/21 06:20:40;;;;;;;2.47;2.38;;;;;;;;;;4984383;28;20049;-61
2022/08/21 06:23:06;;;;;;;3.13;1.98;;;;;;;;;;4985024;28;20570;-61
2022/08/21 06:25:31;;;;;;;2.17;2.08;;;;;;;;;;4983823;28;20031;-61
2022/08/21 06:28:01;;;;;;;2.55;2.35;;;;;;;;;;4984573;28;20030;-61
2022/08/21 06:30:27;;;;;;;2.33;2.22;;;;;;;;;;4984579;28;20026;-61
2022/08/21 06:32:52;;;;;;;2.35;2.25;;;;;;;;;;4987052;28;20061;-60
2022/08/21 06:35:17;;;;;;;2.38;2.22;;;;;;;;;;4985684;28;20033;-59
2022/08/21 06:37:42;;;;;;;2.20;2.00;;;;;;;;;;4983264;28;20038;-60
2022/08/21 06:40:09;;;;;;;2.47;2.28;;;;;;;;;;4983395;28;20043;-60
2022/08/21 06:42:34;;;;;;;2.00;1.90;;;;;;;;;;4983859;28;20947;-61
2022/08/21 06:44:59;;;;;;;1.92;1.83;;;;;;;;;;4984101;28;20035;-62
2022/08/21 06:47:25;;;;;;;1.65;1.60;;;;;;;;;;4981430;28;20125;-61
2022/08/21 06:49:50;;;;;;;2.00;1.90;;;;;;;;;;4978857;28;20045;-63
2022/08/21 06:52:16;;;;;;;1.83;1.73;;;;;;;;;;4981604;28;20054;-61
2022/08/21 06:54:41;;;;;;;2.08;1.88;;;;;;;;;;4983703;28;20038;-61
2022/08/21 06:57:06;;;;;;;1.95;1.85;;;;;;;;;;4966080;28;20109;-61
2022/08/21 06:59:38;;;;;;;2.17;2.08;;;;;;;;;;4983479;28;20097;-61
2022/08/21 07:02:03;;;;;;;1.70;1.70;;;;;;;;;;4983577;28;20014;-62
2022/08/21 07:04:28;;;;;;;2.15;2.05;;;;;;;;;;4966806;28;20052;-61
2022/08/21 07:06:53;;;;;;;2.30;2.20;;;;;;;;;;4983115;28;20030;-62
2022/08/21 07:09:19;;;;;;;2.13;2.03;;;;;;;;;;4983357;28;20469;-61
2022/08/21 07:11:46;;;;;;;2.38;2.28;;;;;;;;;;4983233;28;20473;-60
2022/08/21 07:14:11;;;;;;;2.42;2.33;;;;;;;;;;4983653;28;20061;-61
2022/08/21 07:16:36;;;;;;;1.98;1.88;;;;;;;;;;4984741;28;20109;-60
2022/08/21 07:19:02;;;;;;;2.60;2.40;;;;;;;;;;4986660;28;20115;-61
2022/08/21 07:21:27;;;;;;;2.40;2.30;;;;;;;;;;4986117;28;20034;-62
2022/08/21 07:23:53;;;;;;;2.00;1.90;;;;;;;;;;4987720;28;20499;-61
2022/08/21 07:26:20;;;;;;;2.40;2.20;;;;;;;;;;4986748;28;20049;-62
2022/08/21 07:28:46;;;;;;;2.00;1.90;;;;;;;;;;4985923;28;20065;-60
2022/08/21 07:31:13;;;;;;;2.35;2.25;;;;;;;;;;4985566;28;20065;-61
2022/08/21 07:33:39;;;;;;;2.08;1.98;;;;;;;;;;4986126;28;20080;-61
2022/08/21 07:36:05;;;;;;;2.20;2.00;;;;;;;;;;4985869;28;20145;-61
2022/08/21 07:38:30;;;;;;;2.17;2.08;;;;;;;;;;4986898;28;20044;-63
2022/08/21 07:40:58;;;;;;;1.95;1.85;;;;;;;;;;4985984;28;20468;-61
2022/08/21 07:43:23;;;;;;;2.30;2.20;;;;;;;;;;4968996;28;20543;-61
2022/08/21 07:45:49;;;;;;;2.22;2.13;;;;;;;;;;4985998;28;20022;-61
2022/08/21 07:48:14;;;;;;;2.03;1.92;;;;;;;;;;4986388;28;20026;-61
2022/08/21 07:50:40;;;;;;;2.30;2.17;;;;;;;;;;4986241;28;20532;-61
2022/08/21 07:53:07;;;;;;;2.47;2.38;;;;;;;;;;4986765;28;20041;-60
2022/08/21 07:55:32;;;;;;;3.20;3.00;;;;;;;;;;4986066;28;20041;-61
2022/08/21 07:57:57;;;;;;;2.40;2.30;;;;;;;;;;4985963;28;20032;-61
2022/08/21 08:00:24;;;;;;;2.65;2.45;;;;;;;;;;4985003;28;20022;-61
2022/08/21 08:02:50;;;;;;;3.20;2.63;;;;;;;;;;4985325;28;20030;-61
2022/08/21 08:05:16;;;;;;;3.78;2.75;;;;;;;;;;4985799;28;20595;-61
2022/08/21 08:07:42;;;;;;;3.15;2.95;;;;;;;;;;4985977;28;20030;-61
2022/08/21 08:10:07;;;;;;;2.80;2.70;;;;;;;;;;4986043;28;20041;-60
2022/08/21 08:12:37;;;;;;;2.88;2.50;;;;;;;;;;4985353;28;20028;-61
2022/08/21 08:15:03;;;;;;;3.63;3.30;;;;;;;;;;4966824;28;20069;-61
2022/08/21 08:17:28;;;;;;;3.05;2.85;;;;;;;;;;4985682;28;20403;-61
2022/08/21 08:19:53;;;;;;;2.80;2.60;;;;;;;;;;4984631;28;20030;-62
2022/08/21 08:22:20;;;;;;;2.72;2.60;;;;;;;;;;4985614;28;20561;-62
2022/08/21 08:24:46;;;;;;;3.28;2.88;;;;;;;;;;4984016;28;20030;-60
2022/08/21 08:27:11;;;;;;;3.17;2.90;;;;;;;;;;4979944;28;20030;-62
2022/08/21 08:29:36;;;;;;;3.22;3.03;;;;;;;;;;4967480;28;20476;-61
2022/08/21 08:32:02;;;;;;;2.75;2.65;;;;;;;;;;4984668;28;20050;-62
2022/08/21 08:34:27;;;;;;;3.03;2.90;;;;;;;;;;4985284;28;20048;-62
2022/08/21 08:36:53;;;;;;;2.90;2.72;;;;;;;;;;4984636;28;20034;-62
2022/08/21 08:39:18;;;;;;;2.88;2.72;;;;;;;;;;4986285;28;20045;-61
2022/08/21 08:41:47;;;;;;;2.90;2.70;;;;;;;;;;4986142;28;20117;-60
2022/08/21 08:44:12;;;;;;;3.03;2.78;;;;;;;;;;4980572;28;20607;-61
2022/08/21 08:46:40;;;;;;;2.50;2.40;;;;;;;;;;4983102;28;20041;-61
2022/08/21 08:49:29;;;;;;;3.00;2.80;;;;;;;;;;4954898;28;20034;-61
2022/08/21 08:52:00;;;;;;;2.60;2.50;;;;;;;;;;4982022;28;20030;-61
2022/08/21 08:54:31;;;;;;;2.55;2.35;;;;;;;;;;4985313;28;20044;-60
2022/08/21 08:56:57;;;;;;;2.92;2.70;;;;;;;;;;4986257;28;20022;-61
2022/08/21 08:59:26;;;;;;;2.58;2.05;;;;;;;;;;4984518;28;20026;-61
2022/08/21 09:01:51;;;;;;;1.90;1.80;;;;;;;;;;4984999;28;20041;-62
2022/08/21 09:04:23;;;;;;;2.20;2.10;;;;;;;;;;4985204;28;20041;-61
2022/08/21 09:07:05;;;;;;;2.53;2.40;;;;;;;;;;4985122;28;20479;-61
2022/08/21 09:09:40;;;;;;;2.33;2.22;;;;;;;;;;4985309;28;20057;-62
2022/08/21 09:12:14;;;;;;;2.45;2.35;;;;;;;;;;4985321;28;20030;-61
2022/08/21 09:14:55;;;;;;;2.30;2.20;;;;;;;;;;4985299;28;20472;-62
2022/08/21 09:17:20;;;;;;;2.50;2.38;;;;;;;;;;4983928;28;20076;-58
2022/08/21 09:19:48;;;;;;;2.50;2.40;;;;;;;;;;4979952;28;20377;-62
2022/08/21 09:22:32;;;;;;;2.63;2.42;;;;;;;;;;4982969;28;20030;-63
2022/08/21 09:25:08;;;;;;;2.63;2.45;;;;;;;;;;4985102;28;20029;-63
2022/08/21 09:27:34;;;;;;;2.72;2.63;;;;;;;;;;4986066;28;20519;-63
2022/08/21 09:29:59;;;;;;;3.08;2.10;;;;;;;;;;4968674;28;20026;-62
2022/08/21 09:32:28;;;;;;;2.22;2.05;;;;;;;;;;4984436;28;20065;-64
2022/08/21 09:35:14;;;;;;;2.20;2.10;;;;;;;;;;4983672;28;20121;-61
2022/08/21 09:37:51;;;;;;;2.25;2.15;;;;;;;;;;4984141;28;20034;-63
2022/08/21 09:40:20;;;;;;;2.17;2.08;;;;;;;;;;4984769;28;20080;-61
2022/08/21 09:42:53;;;;;;;2.75;2.38;;;;;;;;;;4985290;28;20038;-62
2022/08/21 09:45:22;;;;;;;1.90;1.80;;;;;;;;;;4984477;28;20644;-62
2022/08/21 09:47:47;;;;;;;2.58;2.38;;;;;;;;;;4984349;28;20030;-62
2022/08/21 09:50:14;;;;;;;2.25;2.15;;;;;;;;;;4984002;28;20073;-62
2022/08/21 09:52:48;;;;;;;2.25;2.15;;;;;;;;;;4985028;28;20075;-61
2022/08/21 09:57:38;;;;;;;3.13;2.83;;;;;;;;;;4983139;28;20038;-62
2022/08/21 09:58:01;;;;;;;2.15;2.05;;;;;;;;;;4980049;28;20037;-61
2022/08/21 10:00:31;;;;;;;2.50;2.40;;;;;;;;;;4980303;28;20035;-62
2022/08/21 10:03:09;;;;;;;2.50;2.40;;;;;;;;;;4980126;28;20041;-61
2022/08/21 10:05:34;;;;;;;2.45;2.35;;;;;;;;;;4982962;28;20030;-62
2022/08/21 10:08:00;;;;;;;2.53;2.33;;;;;;;;;;4984493;28;20392;-62
2022/08/21 10:10:27;;;;;;;2.17;2.08;;;;;;;;;;4980959;28;20180;-62
2022/08/21 10:13:00;;;;;;;2.30;2.20;;;;;;;;;;4979091;28;20034;-62
2022/08/21 10:15:31;;;;;;;2.42;2.33;;;;;;;;;;4981194;28;20030;-61
2022/08/21 10:18:08;;;;;;;2.40;2.30;;;;;;;;;;4980006;28;20022;-62
2022/08/21 10:20:39;;;;;;;2.30;2.20;;;;;;;;;;4979475;28;20022;-62
2022/08/21 10:23:29;;;;;;;2.55;2.20;;;;;;;;;;4978918;28;20065;-62
2022/08/21 10:26:04;;;;;;;2.15;2.05;;;;;;;;;;4981309;28;20034;-62
2022/08/21 10:28:44;;;;;;;2.30;2.20;;;;;;;;;;4983490;28;20081;-61
2022/08/21 10:31:09;;;;;;;2.58;2.38;;;;;;;;;;4979274;28;20049;-61
2022/08/21 10:33:53;;;;;;;2.42;2.33;;;;;;;;;;4981114;28;20181;-62
2022/08/21 10:36:26;;;;;;;2.47;2.38;;;;;;;;;;4984153;28;20033;-62
2022/08/21 10:39:00;;;;;;;1.95;1.85;;;;;;;;;;4984128;28;20459;-63
2022/08/21 10:41:31;;;;;;;2.60;2.40;;;;;;;;;;4984189;28;20026;-62
2022/08/21 10:44:15;;;;;;;3.95;2.42;;;;;;;;;;4984285;28;20057;-62
2022/08/21 10:47:14;;;;;;;6.75;2.60;;;;;;;;;;4984178;28;20026;-62
2022/08/21 10:49:39;;;;;;;2.45;2.30;;;;;;;;;;4925367;28;20484;-62
2022/08/21 10:52:05;;;;;;;6.03;2.40;;;;;;;;;;4987772;28;20041;-62
2022/08/21 10:54:39;;;;;;;2.10;2.00;;;;;;;;;;4987601;28;20042;-62
2022/08/21 10:57:11;;;;;;;4.40;2.13;;;;;;;;;;4987886;28;20031;-61
2022/08/21 10:59:41;;;;;;;2.55;2.15;;;;;;;;;;4987547;28;20096;-61
2022/08/21 11:02:07;;;;;;;3.05;2.25;;;;;;;;;;4987337;28;20097;-60
2022/08/21 11:04:36;;;;;;;2.10;1.90;;;;;;;;;;4988084;28;20310;-63
2022/08/21 11:07:16;;;;;;;3.33;1.90;;;;;;;;;;4987214;28;20453;-63
2022/08/21 11:09:43;;;;;;;4.45;2.25;;;;;;;;;;4987648;28;20072;-63
2022/08/21 11:12:27;;;;;;;2.10;2.00;;;;;;;;;;4987591;28;20354;-63
2022/08/21 11:14:52;;;;;;;2.13;2.03;;;;;;;;;;4988050;28;20113;-63
2022/08/21 11:17:30;;;;;;;2.00;1.90;;;;;;;;;;4986579;28;20437;-63
2022/08/21 11:20:05;;;;;;;1.77;1.67;;;;;;;;;;4982204;28;20033;-63
2022/08/21 11:22:30;;;;;;;;;;;;;;;;;;4985869;28;20042;-63
2022/08/21 11:25:18;;;;;;;2.13;2.03;;;;;;;;;;4988012;28;19921;-63
2022/08/21 11:28:00;;;;;;;1.95;1.85;;;;;;;;;;4987381;28;20057;-63
2022/08/21 11:30:28;;;;;;;2.13;2.03;;;;;;;;;;4986151;28;20076;-63
2022/08/21 11:33:05;;;;;;;2.30;2.20;;;;;;;;;;4987026;28;20088;-62
2022/08/21 11:35:31;;;;;;;2.15;2.05;;;;;;;;;;4987176;28;20038;-65
2022/08/21 11:37:56;;;;;;;2.17;2.08;;;;;;;;;;4987398;28;20492;-62
2022/08/21 11:40:34;;;;;;;2.45;2.25;;;;;;;;;;4987081;28;20033;-62
2022/08/21 11:42:59;;;;;;;2.85;2.55;;;;;;;;;;4981871;28;20568;-64
2022/08/21 11:45:43;;;;;;;2.05;1.83;;;;;;;;;;4982789;28;20023;-60
2022/08/21 11:48:14;;;;;;;1.60;1.60;;;;;;;;;;4983389;28;20105;-61
2022/08/21 11:50:40;;;;;;;1.70;1.60;;;;;;;;;;4976808;28;20046;-62
2022/08/21 11:53:05;;;;;;;1.70;1.63;;;;;;;;;;4966743;28;20049;-60
2022/08/21 11:55:38;;;;;;;1.75;1.65;;;;;;;;;;4981537;28;20038;-61
2022/08/21 11:58:09;;;;;;;1.85;1.75;;;;;;;;;;4986250;28;20037;-62
2022/08/21 12:00:44;;;;;;;1.50;1.50;;;;;;;;;;4986643;28;20044;-61
2022/08/21 12:03:26;;;;;;;1.67;1.58;;;;;;;;;;4968091;28;20030;-61
2022/08/21 12:05:53;;;;;;;1.60;1.60;;;;;;;;;;4981979;28;20077;-62
2022/08/21 12:08:31;;;;;;;1.23;1.23;;;;;;;;;;4984338;28;20030;-62
2022/08/21 12:11:19;;;;;;;1.13;1.13;;;;;;;;;;4986352;28;20040;-63
2022/08/21 12:13:54;;;;;;;1.23;1.23;;;;;;;;;;4985516;28;20618;-64
2022/08/21 12:16:39;;;;;;;1.20;1.20;;;;;;;;;;4986429;28;20120;-63
2022/08/21 12:19:09;;;;;;;1.10;1.10;;;;;;;;;;4985995;28;20036;-62
2022/08/21 12:21:47;;;;;;;1.13;1.13;;;;;;;;;;4984367;28;20066;-61
2022/08/21 12:24:12;;;;;;;1.20;1.20;;;;;;;;;;4986824;28;20041;-61
2022/08/21 12:26:47;;;;;;;1.52;1.40;;;;;;;;;;4986650;28;20461;-61
2022/08/21 12:29:14;;;;;;;1.25;1.25;;;;;;;;;;4986126;28;20026;-63
2022/08/21 12:31:50;;;;;;;1.38;1.33;;;;;;;;;;4986304;28;20591;-62
2022/08/21 12:34:16;;;;;;;1.20;1.20;;;;;;;;;;4986080;28;20057;-62
2022/08/21 12:36:49;;;;;;;4.10;1.35;;;;;;;;;;4986965;28;20126;-62
2022/08/21 12:39:19;;;;;;;1.98;1.55;;;;;;;;;;4986448;28;20034;-61
2022/08/21 12:41:53;;;;;;;1.38;1.33;;;;;;;;;;4985783;28;20037;-61
2022/08/21 12:44:26;;;;;;;1.25;1.25;;;;;;;;;;4968090;28;20396;-61
2022/08/21 12:46:56;;;;;;;1.33;1.33;;;;;;;;;;4985847;28;20169;-62
2022/08/21 12:49:41;;;;;;;1.60;1.50;;;;;;;;;;4967989;28;20173;-61
2022/08/21 12:52:27;;;;;;;1.25;1.13;;;;;;;;;;4985583;28;20084;-62
2022/08/21 12:54:52;;;;;;;1.38;1.30;;;;;;;;;;4945965;28;20142;-61
2022/08/21 12:57:22;;;;;;;1.40;1.27;;;;;;;;;;4984994;28;20636;-61
2022/08/21 12:59:52;;;;;;;1.38;1.27;;;;;;;;;;4984815;28;20873;-61
2022/08/21 13:02:19;;;;;;;1.35;1.35;;;;;;;;;;4985776;28;20026;-61
2022/08/21 13:04:46;;;;;;;1.73;1.63;;;;;;;;;;4985384;28;20612;-61
2022/08/21 13:07:15;;;;;;;2.03;1.92;;;;;;;;;;4984192;28;20448;-63
2022/08/21 13:10:01;;;;;;;1.88;1.77;;;;;;;;;;4980221;28;20038;-61
2022/08/21 13:12:28;;;;;;;1.70;1.60;;;;;;;;;;4982541;28;20488;-63
2022/08/21 13:14:56;;;;;;;1.65;1.55;;;;;;;;;;4983863;28;20053;-63
2022/08/21 13:17:23;;;;;;;2.53;1.73;;;;;;;;;;4985047;28;20034;-63
2022/08/21 13:20:03;;;;;;;2.00;1.90;;;;;;;;;;4984304;28;20353;-61
2022/08/21 13:22:28;;;;;;;1.80;1.70;;;;;;;;;;4985391;28;20088;-61
2022/08/21 13:24:54;;;;;;;2.03;1.90;;;;;;;;;;4984217;28;20028;-64
2022/08/21 13:27:27;;;;;;;1.80;1.70;;;;;;;;;;4985522;28;20026;-59
2022/08/21 13:30:11;;;;;;;1.80;1.70;;;;;;;;;;4984617;28;20121;-63
2022/08/21 13:32:40;;;;;;;1.83;1.73;;;;;;;;;;4984499;28;20444;-60
2022/08/21 13:35:25;;;;;;;2.55;2.38;;;;;;;;;;4984667;28;20061;-61
2022/08/21 13:37:51;;;;;;;1.98;1.88;;;;;;;;;;4979647;28;20034;-62
2022/08/21 13:40:19;;;;;;;2.25;2.10;;;;;;;;;;4981042;28;20142;-61
2022/08/21 13:42:46;;;;;;;2.63;2.42;;;;;;;;;;4967665;28;20023;-62
2022/08/21 13:45:17;;;;;;;2.72;2.53;;;;;;;;;;4984369;28;20126;-61
2022/08/21 13:47:46;;;;;;;2.92;2.67;;;;;;;;;;4983860;28;20037;-62
2022/08/21 13:50:13;;;;;;;2.85;2.65;;;;;;;;;;4983782;28;20137;-62
2022/08/21 13:52:45;;;;;;;3.38;2.55;;;;;;;;;;4983160;28;20030;-62
2022/08/21 13:55:15;;;;;;;2.88;2.67;;;;;;;;;;4983429;28;20041;-62
2022/08/21 13:57:41;;;;;;;3.40;3.10;;;;;;;;;;4983226;28;20527;-62
2022/08/21 14:00:15;;;;;;;3.72;2.80;;;;;;;;;;4983050;28;20022;-62
2022/08/21 14:02:43;;;;;;;2.70;2.58;;;;;;;;;;4982708;28;20164;-62
2022/08/21 14:05:17;;;;;;;2.70;2.58;;;;;;;;;;4983951;28;20030;-62
2022/08/21 14:07:43;;;;;;;3.10;2.90;;;;;;;;;;4983457;28;20022;-61
2022/08/21 14:10:21;;;;;;;2.90;2.70;;;;;;;;;;4983772;28;20455;-62
2022/08/21 14:12:52;;;;;;;3.33;3.05;;;;;;;;;;4983280;28;20447;-61
2022/08/21 14:15:18;;;;;;;2.72;2.53;;;;;;;;;;4983336;28;20420;-62
2022/08/21 14:17:44;;;;;;;3.97;2.67;;;;;;;;;;4980171;28;20030;-62
2022/08/21 14:20:11;;;;;;;3.60;3.35;;;;;;;;;;4977844;28;20027;-62
2022/08/21 14:22:41;;;;;;;2.60;2.40;;;;;;;;;;4980927;28;20026;-62
2022/08/21 14:25:06;;;;;;;3.40;2.95;;;;;;;;;;4980609;28;20030;-62
2022/08/21 14:27:32;;;;;;;3.53;3.20;;;;;;;;;;4985604;28;20048;-62
2022/08/21 14:29:59;;;;;;;3.20;2.90;;;;;;;;;;4986396;28;20049;-63
2022/08/21 14:32:26;;;;;;;2.88;2.67;;;;;;;;;;4988344;28;20051;-63
2022/08/21 14:34:52;;;;;;;3.28;3.08;;;;;;;;;;4988744;28;20403;-62
2022/08/21 14:37:17;;;;;;;3.95;3.55;;;;;;;;;;4988283;28;20025;-63
2022/08/21 14:39:44;;;;;;;3.45;2.97;;;;;;;;;;4987608;28;20047;-63
2022/08/21 14:42:09;;;;;;;3.38;3.17;;;;;;;;;;4988261;28;20035;-63
2022/08/21 14:44:35;;;;;;;3.25;3.00;;;;;;;;;;4988765;28;20532;-63
2022/08/21 14:47:00;;;;;;;5.32;3.53;;;;;;;;;;4987375;28;20117;-65
2022/08/21 14:49:27;;;;;;;3.40;3.10;;;;;;;;;;4987838;28;20065;-65